sensor_id;sensor_type;location;lat;lon;timestamp;pressure;altitude;pressure_sealevel;temperature;humidity
19789;BME280;10054;59.332;18.244;2023-04-03T00:01:25;102962.28;;;-3.03;100.00
19789;BME280;10054;59.332;18.244;2023-04-03T00:03:54;102963.71;;;-2.98;100.00
19789;BME280;10054;59.332;18.244;2023-04-03T00:06:24;102968.98;;;-2.93;100.00
19789;BME280;10054;59.332;18.244;2023-04-03T00:08:53;102964.70;;;-2.93;100.00
19789;BME280;10054;59.332;18.244;2023-04-03T00:11:22;102967.19;;;-2.96;100.00
19789;BME280;10054;59.332;18.244;2023-04-03T00:13:51;102967.45;;;-3.03;100.00
19789;BME280;10054;59.332;18.244;2023-04-03T00:16:20;102966.47;;;-3.06;100.00
19789;BME280;10054;59.332;18.244;2023-04-03T00:18:48;102962.92;;;-3.10;100.00
19789;BME280;10054;59.332;18.244;2023-04-03T00:21:17;102959.78;;;-3.14;100.00
19789;BME280;10054;59.332;18.244;2023-04-03T00:23:45;102963.61;;;-3.15;100.00
19789;BME280;10054;59.332;18.244;2023-04-03T00:26:14;102958.81;;;-3.17;100.00
19789;BME280;10054;59.332;18.244;2023-04-03T00:28:43;102967.80;;;-3.19;100.00
19789;BME280;10054;59.332;18.244;2023-04-03T00:31:18;102964.29;;;-3.21;100.00
19789;BME280;10054;59.332;18.244;2023-04-03T00:33:43;102974.66;;;-3.19;100.00
19789;BME280;10054;59.332;18.244;2023-04-03T00:36:13;102974.66;;;-3.19;100.00
19789;BME280;10054;59.332;18.244;2023-04-03T00:38:41;102968.16;;;-3.21;100.00
19789;BME280;10054;59.332;18.244;2023-04-03T00:41:10;102970.74;;;-3.21;100.00
19789;BME280;10054;59.332;18.244;2023-04-03T00:43:39;102976.32;;;-3.21;100.00
19789;BME280;10054;59.332;18.244;2023-04-03T00:46:08;102973.27;;;-3.22;100.00
19789;BME280;10054;59.332;18.244;2023-04-03T00:48:47;102972.35;;;-3.24;100.00
19789;BME280;10054;59.332;18.244;2023-04-03T00:51:18;102970.23;;;-3.23;100.00
19789;BME280;10054;59.332;18.244;2023-04-03T00:53:55;102968.53;;;-3.23;100.00
19789;BME280;10054;59.332;18.244;2023-04-03T00:56:26;102971.11;;;-3.23;100.00
19789;BME280;10054;59.332;18.244;2023-04-03T00:58:58;102967.19;;;-3.24;100.00
19789;BME280;10054;59.332;18.244;2023-04-03T01:01:28;102970.19;;;-3.25;100.00
19789;BME280;10054;59.332;18.244;2023-04-03T01:04:00;102967.09;;;-3.27;100.00
19789;BME280;10054;59.332;18.244;2023-04-03T01:06:32;102965.80;;;-3.27;100.00
19789;BME280;10054;59.332;18.244;2023-04-03T01:09:03;102970.96;;;-3.27;100.00
19789;BME280;10054;59.332;18.244;2023-04-03T01:11:33;102970.23;;;-3.23;100.00
19789;BME280;10054;59.332;18.244;2023-04-03T01:14:02;102973.38;;;-3.19;100.00
19789;BME280;10054;59.332;18.244;2023-04-03T01:16:32;102971.98;;;-3.22;100.00
19789;BME280;10054;59.332;18.244;2023-04-03T01:19:02;102967.14;;;-3.26;100.00
19789;BME280;10054;59.332;18.244;2023-04-03T01:26:45;102973.81;;;-3.33;100.00
19789;BME280;10054;59.332;18.244;2023-04-03T01:29:13;102967.72;;;-3.35;100.00
19789;BME280;10054;59.332;18.244;2023-04-03T01:31:54;102970.25;;;-3.36;100.00
19789;BME280;10054;59.332;18.244;2023-04-03T01:34:24;102967.62;;;-3.38;100.00
19789;BME280;10054;59.332;18.244;2023-04-03T01:36:54;102964.63;;;-3.37;100.00
19789;BME280;10054;59.332;18.244;2023-04-03T01:39:23;102965.05;;;-3.38;100.00
19789;BME280;10054;59.332;18.244;2023-04-03T01:41:52;102971.03;;;-3.39;100.00
19789;BME280;10054;59.332;18.244;2023-04-03T01:44:22;102973.66;;;-3.37;100.00
19789;BME280;10054;59.332;18.244;2023-04-03T01:46:51;102977.12;;;-3.37;100.00
19789;BME280;10054;59.332;18.244;2023-04-03T01:49:20;102973.25;;;-3.37;100.00
19789;BME280;10054;59.332;18.244;2023-04-03T01:51:49;102978.00;;;-3.36;100.00
19789;BME280;10054;59.332;18.244;2023-04-03T01:54:17;102972.88;;;-3.35;100.00
19789;BME280;10054;59.332;18.244;2023-04-03T01:56:47;102974.64;;;-3.34;100.00
19789;BME280;10054;59.332;18.244;2023-04-03T01:59:15;102972.98;;;-3.32;100.00
19789;BME280;10054;59.332;18.244;2023-04-03T02:01:45;102980.82;;;-3.28;100.00
19789;BME280;10054;59.332;18.244;2023-04-03T02:04:14;102971.84;;;-3.27;100.00
19789;BME280;10054;59.332;18.244;2023-04-03T02:06:42;102977.47;;;-3.26;100.00
19789;BME280;10054;59.332;18.244;2023-04-03T02:09:11;102972.35;;;-3.24;100.00
19789;BME280;10054;59.332;18.244;2023-04-03T02:11:40;102976.64;;;-3.25;100.00
19789;BME280;10054;59.332;18.244;2023-04-03T02:14:10;102980.09;;;-3.24;100.00
19789;BME280;10054;59.332;18.244;2023-04-03T02:16:38;102983.14;;;-3.23;100.00
19789;BME280;10054;59.332;18.244;2023-04-03T02:19:07;102980.29;;;-3.18;100.00
19789;BME280;10054;59.332;18.244;2023-04-03T02:21:36;102982.05;;;-3.17;100.00
19789;BME280;10054;59.332;18.244;2023-04-03T02:24:05;102980.75;;;-3.17;100.00
19789;BME280;10054;59.332;18.244;2023-04-03T02:26:34;102978.53;;;-3.19;100.00
19789;BME280;10054;59.332;18.244;2023-04-03T02:29:05;102978.44;;;-3.22;100.00
19789;BME280;10054;59.332;18.244;2023-04-03T02:31:35;102979.73;;;-3.22;100.00
19789;BME280;10054;59.332;18.244;2023-04-03T02:34:05;102983.55;;;-3.24;100.00
19789;BME280;10054;59.332;18.244;2023-04-03T02:36:34;102981.80;;;-3.25;100.00
19789;BME280;10054;59.332;18.244;2023-04-03T02:39:05;102981.28;;;-3.27;100.00
19789;BME280;10054;59.332;18.244;2023-04-03T02:41:35;102987.69;;;-3.29;100.00
19789;BME280;10054;59.332;18.244;2023-04-03T02:44:07;102990.22;;;-3.31;100.00
19789;BME280;10054;59.332;18.244;2023-04-03T02:46:36;102988.52;;;-3.30;100.00
19789;BME280;10054;59.332;18.244;2023-04-03T02:49:05;102990.22;;;-3.31;100.00
19789;BME280;10054;59.332;18.244;2023-04-03T02:51:34;102985.89;;;-3.32;100.00
19789;BME280;10054;59.332;18.244;2023-04-03T02:54:03;102984.55;;;-3.33;100.00
19789;BME280;10054;59.332;18.244;2023-04-03T02:56:33;102986.25;;;-3.34;100.00
19789;BME280;10054;59.332;18.244;2023-04-03T02:59:02;102986.56;;;-3.37;100.00
19789;BME280;10054;59.332;18.244;2023-04-03T03:01:32;102990.02;;;-3.37;100.00
19789;BME280;10054;59.332;18.244;2023-04-03T03:04:00;102991.67;;;-3.39;100.00
19789;BME280;10054;59.332;18.244;2023-04-03T03:06:29;102988.63;;;-3.40;100.00
19789;BME280;10054;59.332;18.244;2023-04-03T03:08:57;102992.45;;;-3.41;100.00
19789;BME280;10054;59.332;18.244;2023-04-03T03:11:26;102993.74;;;-3.41;100.00
19789;BME280;10054;59.332;18.244;2023-04-03T03:13:55;102992.77;;;-3.45;100.00
19789;BME280;10054;59.332;18.244;2023-04-03T03:16:24;102996.59;;;-3.46;100.00
19789;BME280;10054;59.332;18.244;2023-04-03T03:18:53;103002.16;;;-3.47;100.00
19789;BME280;10054;59.332;18.244;2023-04-03T03:21:22;103004.27;;;-3.48;100.00
19789;BME280;10054;59.332;18.244;2023-04-03T03:23:51;103003.81;;;-3.49;100.00
19789;BME280;10054;59.332;18.244;2023-04-03T03:26:19;102996.59;;;-3.46;100.00
19789;BME280;10054;59.332;18.244;2023-04-03T03:28:48;102990.59;;;-3.45;100.00
19789;BME280;10054;59.332;18.244;2023-04-03T03:31:16;103000.04;;;-3.46;100.00
19789;BME280;10054;59.332;18.244;2023-04-03T03:33:46;102997.83;;;-3.48;100.00
19789;BME280;10054;59.332;18.244;2023-04-03T03:36:15;103002.83;;;-3.52;100.00
19789;BME280;10054;59.332;18.244;2023-04-03T03:38:44;103003.55;;;-3.56;100.00
19789;BME280;10054;59.332;18.244;2023-04-03T03:41:13;103002.98;;;-3.60;100.00
19789;BME280;10054;59.332;18.244;2023-04-03T03:43:43;103005.46;;;-3.64;100.00
19789;BME280;10054;59.332;18.244;2023-04-03T03:46:13;103004.02;;;-3.68;100.00
19789;BME280;10054;59.332;18.244;2023-04-03T03:48:43;103003.06;;;-3.72;100.00
19789;BME280;10054;59.332;18.244;2023-04-03T03:51:12;103005.13;;;-3.74;100.00
19789;BME280;10054;59.332;18.244;2023-04-03T03:53:40;103008.95;;;-3.76;100.00
19789;BME280;10054;59.332;18.244;2023-04-03T03:56:11;103006.31;;;-3.77;100.00
19789;BME280;10054;59.332;18.244;2023-04-03T03:58:40;103011.88;;;-3.78;100.00
19789;BME280;10054;59.332;18.244;2023-04-03T04:01:09;103013.59;;;-3.78;100.00
19789;BME280;10054;59.332;18.244;2023-04-03T04:03:42;103017.81;;;-3.80;100.00
19789;BME280;10054;59.332;18.244;2023-04-03T04:06:12;103019.98;;;-3.80;100.00
19789;BME280;10054;59.332;18.244;2023-04-03T04:08:42;103015.70;;;-3.79;100.00
19789;BME280;10054;59.332;18.244;2023-04-03T04:11:11;103016.98;;;-3.79;100.00
19789;BME280;10054;59.332;18.244;2023-04-03T04:13:40;103015.23;;;-3.80;100.00
19789;BME280;10054;59.332;18.244;2023-04-03T04:16:10;103021.68;;;-3.80;100.00
19789;BME280;10054;59.332;18.244;2023-04-03T04:18:39;103018.64;;;-3.81;100.00
19789;BME280;10054;59.332;18.244;2023-04-03T04:21:08;103019.10;;;-3.80;100.00
19789;BME280;10054;59.332;18.244;2023-04-03T04:23:38;103024.37;;;-3.77;100.00
19789;BME280;10054;59.332;18.244;2023-04-03T04:26:07;103024.47;;;-3.74;100.00
19789;BME280;10054;59.332;18.244;2023-04-03T04:28:37;103026.35;;;-3.69;100.00
19789;BME280;10054;59.332;18.244;2023-04-03T04:31:06;103025.47;;;-3.69;100.00
19789;BME280;10054;59.332;18.244;2023-04-03T04:33:36;103032.80;;;-3.69;100.00
19789;BME280;10054;59.332;18.244;2023-04-03T04:36:05;103030.63;;;-3.69;100.00
19789;BME280;10054;59.332;18.244;2023-04-03T04:38:35;103034.66;;;-3.65;100.00
19789;BME280;10054;59.332;18.244;2023-04-03T04:41:04;103032.70;;;-3.59;100.00
19789;BME280;10054;59.332;18.244;2023-04-03T04:43:33;103031.98;;;-3.55;100.00
19789;BME280;10054;59.332;18.244;2023-04-03T04:46:08;103032.24;;;-3.47;100.00
19789;BME280;10054;59.332;18.244;2023-04-03T04:48:39;103030.84;;;-3.38;100.00
19789;BME280;10054;59.332;18.244;2023-04-03T04:51:09;103026.50;;;-3.26;100.00
19789;BME280;10054;59.332;18.244;2023-04-03T04:53:38;103031.55;;;-3.16;100.00
19789;BME280;10054;59.332;18.244;2023-04-03T04:56:08;103027.71;;;-3.02;100.00
19789;BME280;10054;59.332;18.244;2023-04-03T04:58:37;103025.58;;;-2.87;100.00
19789;BME280;10054;59.332;18.244;2023-04-03T05:01:08;103027.66;;;-2.75;100.00
19789;BME280;10054;59.332;18.244;2023-04-03T05:03:38;103021.20;;;-2.61;100.00
19789;BME280;10054;59.332;18.244;2023-04-03T05:06:07;103017.10;;;-2.54;100.00
19789;BME280;10054;59.332;18.244;2023-04-03T05:08:37;103019.95;;;-2.45;100.00
19789;BME280;10054;59.332;18.244;2023-04-03T05:11:08;103014.22;;;-2.35;100.00
19789;BME280;10054;59.332;18.244;2023-04-03T05:13:36;103020.95;;;-2.26;100.00
19789;BME280;10054;59.332;18.244;2023-04-03T05:16:06;103022.98;;;-2.14;100.00
19789;BME280;10054;59.332;18.244;2023-04-03T05:18:35;103019.69;;;-2.09;100.00
19789;BME280;10054;59.332;18.244;2023-04-03T05:21:06;103030.28;;;-2.00;100.00
19789;BME280;10054;59.332;18.244;2023-04-03T05:23:35;103027.03;;;-1.92;100.00
19789;BME280;10054;59.332;18.244;2023-04-03T05:26:04;103024.62;;;-1.86;100.00
19789;BME280;10054;59.332;18.244;2023-04-03T05:28:33;103024.32;;;-1.81;100.00
19789;BME280;10054;59.332;18.244;2023-04-03T05:31:03;103021.44;;;-1.76;100.00
19789;BME280;10054;59.332;18.244;2023-04-03T05:33:33;103019.65;;;-1.79;100.00
19789;BME280;10054;59.332;18.244;2023-04-03T05:36:04;103028.27;;;-1.62;100.00
19789;BME280;10054;59.332;18.244;2023-04-03T05:38:35;103023.37;;;-1.52;100.00
19789;BME280;10054;59.332;18.244;2023-04-03T05:41:04;103013.22;;;-1.43;100.00
19789;BME280;10054;59.332;18.244;2023-04-03T05:43:33;103019.81;;;-1.38;100.00
19789;BME280;10054;59.332;18.244;2023-04-03T05:46:03;103012.73;;;-1.28;100.00
19789;BME280;10054;59.332;18.244;2023-04-03T05:48:32;103012.53;;;-1.18;100.00
19789;BME280;10054;59.332;18.244;2023-04-03T05:51:01;103020.11;;;-1.09;100.00
19789;BME280;10054;59.332;18.244;2023-04-03T05:53:33;103015.20;;;-1.15;100.00
19789;BME280;10054;59.332;18.244;2023-04-03T05:56:04;103020.03;;;-1.12;100.00
19789;BME280;10054;59.332;18.244;2023-04-03T05:58:34;103020.94;;;-1.10;100.00
19789;BME280;10054;59.332;18.244;2023-04-03T06:01:04;103020.52;;;-1.09;100.00
19789;BME280;10054;59.332;18.244;2023-04-03T06:03:33;103020.74;;;-1.00;100.00
19789;BME280;10054;59.332;18.244;2023-04-03T06:06:03;103024.00;;;-0.90;100.00
19789;BME280;10054;59.332;18.244;2023-04-03T06:08:33;103019.00;;;-0.82;100.00
19789;BME280;10054;59.332;18.244;2023-04-03T06:11:02;103024.08;;;-0.67;100.00
19789;BME280;10054;59.332;18.244;2023-04-03T06:13:31;103020.84;;;-0.56;100.00
19789;BME280;10054;59.332;18.244;2023-04-03T06:16:01;103027.07;;;-0.48;100.00
19789;BME280;10054;59.332;18.244;2023-04-03T06:18:31;103028.89;;;-0.44;100.00
19789;BME280;10054;59.332;18.244;2023-04-03T06:21:00;103023.80;;;-0.40;100.00
19789;BME280;10054;59.332;18.244;2023-04-03T06:23:30;103025.26;;;-0.32;100.00
19789;BME280;10054;59.332;18.244;2023-04-03T06:26:00;103026.29;;;-0.24;100.00
19789;BME280;10054;59.332;18.244;2023-04-03T06:28:29;103026.93;;;-0.14;100.00
19789;BME280;10054;59.332;18.244;2023-04-03T06:30:57;103027.48;;;-0.08;100.00
19789;BME280;10054;59.332;18.244;2023-04-03T06:33:26;103025.70;;;-0.11;100.00
19789;BME280;10054;59.332;18.244;2023-04-03T06:35:59;103022.02;;;0.00;100.00
19789;BME280;10054;59.332;18.244;2023-04-03T06:38:27;103021.68;;;0.07;100.00
19789;BME280;10054;59.332;18.244;2023-04-03T06:40:56;103028.41;;;0.19;100.00
19789;BME280;10054;59.332;18.244;2023-04-03T06:43:26;103026.37;;;0.26;100.00
19789;BME280;10054;59.332;18.244;2023-04-03T06:45:55;103030.49;;;0.38;100.00
19789;BME280;10054;59.332;18.244;2023-04-03T06:48:23;103033.28;;;0.49;100.00
19789;BME280;10054;59.332;18.244;2023-04-03T06:50:53;103034.69;;;0.55;100.00
19789;BME280;10054;59.332;18.244;2023-04-03T06:53:22;103037.45;;;0.64;100.00
19789;BME280;10054;59.332;18.244;2023-04-03T06:55:51;103035.77;;;0.68;100.00
19789;BME280;10054;59.332;18.244;2023-04-03T06:58:20;103033.23;;;0.71;100.00
19789;BME280;10054;59.332;18.244;2023-04-03T07:00:49;103032.05;;;0.80;100.00
19789;BME280;10054;59.332;18.244;2023-04-03T07:03:18;103028.70;;;0.87;100.00
19789;BME280;10054;59.332;18.244;2023-04-03T07:05:47;103029.30;;;0.97;100.00
19789;BME280;10054;59.332;18.244;2023-04-03T07:08:16;103027.72;;;1.07;100.00
19789;BME280;10054;59.332;18.244;2023-04-03T07:10:45;103031.61;;;1.07;100.00
19789;BME280;10054;59.332;18.244;2023-04-03T07:13:13;103032.18;;;1.15;100.00
19789;BME280;10054;59.332;18.244;2023-04-03T07:15:42;103035.75;;;1.22;100.00
19789;BME280;10054;59.332;18.244;2023-04-03T07:18:11;103032.63;;;1.16;100.00
19789;BME280;10054;59.332;18.244;2023-04-03T07:20:40;103035.97;;;1.08;100.00
19789;BME280;10054;59.332;18.244;2023-04-03T07:23:09;103025.97;;;1.06;100.00
19789;BME280;10054;59.332;18.244;2023-04-03T07:25:43;103031.14;;;1.04;100.00
19789;BME280;10054;59.332;18.244;2023-04-03T07:28:13;103030.92;;;1.18;100.00
19789;BME280;10054;59.332;18.244;2023-04-03T07:30:46;103032.38;;;1.29;100.00
19789;BME280;10054;59.332;18.244;2023-04-03T07:33:16;103034.53;;;1.28;100.00
19789;BME280;10054;59.332;18.244;2023-04-03T07:35:46;103030.72;;;1.34;100.00
19789;BME280;10054;59.332;18.244;2023-04-03T07:38:15;103032.60;;;1.44;100.00
19789;BME280;10054;59.332;18.244;2023-04-03T07:40:48;103025.78;;;1.55;99.89
19789;BME280;10054;59.332;18.244;2023-04-03T07:43:18;103024.14;;;1.62;97.17
19789;BME280;10054;59.332;18.244;2023-04-03T07:45:48;103028.16;;;1.71;95.91
19789;BME280;10054;59.332;18.244;2023-04-03T07:48:24;103028.59;;;1.71;93.75
19789;BME280;10054;59.332;18.244;2023-04-03T07:50:53;103025.70;;;1.83;95.45
19789;BME280;10054;59.332;18.244;2023-04-03T07:53:22;103029.02;;;1.70;91.23
19789;BME280;10054;59.332;18.244;2023-04-03T07:55:51;103023.38;;;1.71;92.66
19789;BME280;10054;59.332;18.244;2023-04-03T07:58:21;103028.25;;;1.79;89.01
19789;BME280;10054;59.332;18.244;2023-04-03T08:00:50;103027.83;;;1.79;91.50
19789;BME280;10054;59.332;18.244;2023-04-03T08:03:19;103024.14;;;1.97;92.05
19789;BME280;10054;59.332;18.244;2023-04-03T08:05:49;103022.50;;;2.06;90.54
19789;BME280;10054;59.332;18.244;2023-04-03T08:08:20;103024.37;;;2.17;87.48
19789;BME280;10054;59.332;18.244;2023-04-03T08:10:50;103022.70;;;2.27;89.00
19789;BME280;10054;59.332;18.244;2023-04-03T08:13:19;103024.52;;;2.36;87.23
19789;BME280;10054;59.332;18.244;2023-04-03T08:15:49;103017.70;;;2.48;87.09
19789;BME280;10054;59.332;18.244;2023-04-03T08:18:18;103021.25;;;2.56;84.50
19789;BME280;10054;59.332;18.244;2023-04-03T08:20:49;103020.78;;;2.52;79.25
19789;BME280;10054;59.332;18.244;2023-04-03T08:23:19;103026.80;;;2.47;80.95
19789;BME280;10054;59.332;18.244;2023-04-03T08:25:48;103019.83;;;2.44;81.06
19789;BME280;10054;59.332;18.244;2023-04-03T08:28:18;103013.78;;;2.47;79.41
19789;BME280;10054;59.332;18.244;2023-04-03T08:30:47;103014.32;;;2.58;79.56
19789;BME280;10054;59.332;18.244;2023-04-03T08:33:15;103019.09;;;2.57;78.38
19789;BME280;10054;59.332;18.244;2023-04-03T08:35:44;103023.44;;;2.58;75.83
19789;BME280;10054;59.332;18.244;2023-04-03T08:38:13;103018.27;;;2.63;75.66
19789;BME280;10054;59.332;18.244;2023-04-03T08:40:42;103012.66;;;2.67;74.01
19789;BME280;10054;59.332;18.244;2023-04-03T08:45:56;103011.35;;;2.67;71.13
19789;BME280;10054;59.332;18.244;2023-04-03T08:48:34;103012.55;;;2.54;71.19
19789;BME280;10054;59.332;18.244;2023-04-03T08:51:08;103010.48;;;2.68;72.84
19789;BME280;10054;59.332;18.244;2023-04-03T08:53:38;103003.27;;;2.87;73.63
19789;BME280;10054;59.332;18.244;2023-04-03T08:56:09;103011.60;;;3.03;71.75
19789;BME280;10054;59.332;18.244;2023-04-03T08:58:50;103003.80;;;3.06;71.76
19789;BME280;10054;59.332;18.244;2023-04-03T09:01:29;103001.69;;;3.15;70.82
19789;BME280;10054;59.332;18.244;2023-04-03T09:03:57;103000.82;;;3.16;70.53
19789;BME280;10054;59.332;18.244;2023-04-03T09:06:29;103000.86;;;3.22;69.62
19789;BME280;10054;59.332;18.244;2023-04-03T09:09:15;102998.69;;;3.23;69.48
19789;BME280;10054;59.332;18.244;2023-04-03T09:11:55;103006.02;;;3.13;68.02
19789;BME280;10054;59.332;18.244;2023-04-03T09:14:26;103006.55;;;3.29;68.04
19789;BME280;10054;59.332;18.244;2023-04-03T09:17:06;103005.24;;;3.27;66.83
19789;BME280;10054;59.332;18.244;2023-04-03T09:19:36;103007.45;;;3.34;66.44
19789;BME280;10054;59.332;18.244;2023-04-03T09:22:27;103002.22;;;3.31;65.40
19789;BME280;10054;59.332;18.244;2023-04-03T09:25:10;103006.59;;;3.37;64.72
19789;BME280;10054;59.332;18.244;2023-04-03T09:27:33;103001.37;;;3.34;64.14
19789;BME280;10054;59.332;18.244;2023-04-03T09:30:02;102998.77;;;3.37;64.52
19789;BME280;10054;59.332;18.244;2023-04-03T09:32:37;103000.10;;;3.41;61.31
19789;BME280;10054;59.332;18.244;2023-04-03T09:37:48;102991.83;;;3.39;59.61
19789;BME280;10054;59.332;18.244;2023-04-03T09:43:02;102989.78;;;3.73;62.41
19789;BME280;10054;59.332;18.244;2023-04-03T09:45:33;102981.09;;;3.70;59.69
19789;BME280;10054;59.332;18.244;2023-04-03T09:50:54;102971.58;;;3.99;61.24
19789;BME280;10054;59.332;18.244;2023-04-03T09:56:21;102978.11;;;4.01;58.38
19789;BME280;10054;59.332;18.244;2023-04-03T10:01:41;102972.81;;;3.73;56.28
19789;BME280;10054;59.332;18.244;2023-04-03T10:04:13;102967.66;;;3.99;57.87
19789;BME280;10054;59.332;18.244;2023-04-03T10:06:53;102968.55;;;4.09;58.66
19789;BME280;10054;59.332;18.244;2023-04-03T10:12:05;102958.56;;;4.22;59.04
19789;BME280;10054;59.332;18.244;2023-04-03T10:14:38;102952.88;;;4.07;57.44
19789;BME280;10054;59.332;18.244;2023-04-03T10:17:18;102959.83;;;4.01;56.81
19789;BME280;10054;59.332;18.244;2023-04-03T10:19:55;102955.03;;;3.94;57.39
19789;BME280;10054;59.332;18.244;2023-04-03T10:25:41;102942.02;;;4.15;57.20
19789;BME280;10054;59.332;18.244;2023-04-03T10:28:20;102940.72;;;4.34;58.50
19789;BME280;10054;59.332;18.244;2023-04-03T10:30:58;102938.55;;;4.38;55.10
19789;BME280;10054;59.332;18.244;2023-04-03T10:33:56;102929.41;;;4.41;56.78
19789;BME280;10054;59.332;18.244;2023-04-03T10:44:38;102924.14;;;4.48;54.40
19789;BME280;10054;59.332;18.244;2023-04-03T10:47:10;102921.52;;;4.51;53.44
19789;BME280;10054;59.332;18.244;2023-04-03T10:57:59;102907.56;;;4.69;52.91
19789;BME280;10054;59.332;18.244;2023-04-03T11:00:37;102887.91;;;4.90;52.28
19789;BME280;10054;59.332;18.244;2023-04-03T11:06:05;102888.36;;;4.82;51.13
19789;BME280;10054;59.332;18.244;2023-04-03T11:11:21;102890.08;;;4.94;51.95
19789;BME280;10054;59.332;18.244;2023-04-03T11:13:56;102883.98;;;4.89;51.33
19789;BME280;10054;59.332;18.244;2023-04-03T11:16:27;102874.37;;;4.97;50.30
19789;BME280;10054;59.332;18.244;2023-04-03T11:21:47;102873.06;;;5.00;51.08
19789;BME280;10054;59.332;18.244;2023-04-03T11:24:27;102869.12;;;5.05;50.63
19789;BME280;10054;59.332;18.244;2023-04-03T11:26:58;102864.75;;;5.08;50.06
19789;BME280;10054;59.332;18.244;2023-04-03T11:29:32;102859.94;;;5.11;49.01
19789;BME280;10054;59.332;18.244;2023-04-03T11:32:25;102860.41;;;5.01;48.99
19789;BME280;10054;59.332;18.244;2023-04-03T11:34:50;102855.60;;;5.05;48.73
19789;BME280;10054;59.332;18.244;2023-04-03T11:37:29;102853.47;;;4.92;48.45
19789;BME280;10054;59.332;18.244;2023-04-03T11:40:19;102844.31;;;4.94;48.83
19789;BME280;10054;59.332;18.244;2023-04-03T11:42:45;102844.68;;;5.10;50.22
19789;BME280;10054;59.332;18.244;2023-04-03T11:47:57;102841.92;;;5.35;50.02
19789;BME280;10054;59.332;18.244;2023-04-03T11:55:55;102828.89;;;5.24;48.46
19789;BME280;10054;59.332;18.244;2023-04-03T12:01:07;102828.50;;;5.20;47.13
19789;BME280;10054;59.332;18.244;2023-04-03T12:08:49;102821.91;;;5.24;47.21
19789;BME280;10054;59.332;18.244;2023-04-03T12:11:29;102826.34;;;5.15;47.19
19789;BME280;10054;59.332;18.244;2023-04-03T12:29:46;102804.91;;;5.21;44.34
19789;BME280;10054;59.332;18.244;2023-04-03T12:32:26;102794.52;;;5.15;45.65
19789;BME280;10054;59.332;18.244;2023-04-03T12:35:20;102795.85;;;5.09;44.13
19789;BME280;10054;59.332;18.244;2023-04-03T12:38:13;102795.06;;;4.90;42.90
19789;BME280;10054;59.332;18.244;2023-04-03T12:40:47;102791.92;;;5.11;44.31
19789;BME280;10054;59.332;18.244;2023-04-03T12:43:47;102784.52;;;5.09;42.79
19789;BME280;10054;59.332;18.244;2023-04-03T12:46:15;102790.58;;;5.17;42.61
19789;BME280;10054;59.332;18.244;2023-04-03T12:48:50;102792.20;;;5.32;41.85
19789;BME280;10054;59.332;18.244;2023-04-03T12:51:36;102786.55;;;5.31;40.88
19789;BME280;10054;59.332;18.244;2023-04-03T12:56:54;102784.97;;;5.05;40.63
19789;BME280;10054;59.332;18.244;2023-04-03T12:59:24;102788.84;;;5.14;41.75
19789;BME280;10054;59.332;18.244;2023-04-03T13:01:56;102781.46;;;5.09;40.94
19789;BME280;10054;59.332;18.244;2023-04-03T13:04:26;102782.30;;;5.17;41.45
19789;BME280;10054;59.332;18.244;2023-04-03T13:06:56;102780.00;;;5.31;42.30
19789;BME280;10054;59.332;18.244;2023-04-03T13:09:28;102770.03;;;5.21;42.23
19789;BME280;10054;59.332;18.244;2023-04-03T13:12:00;102769.13;;;5.26;42.22
19789;BME280;10054;59.332;18.244;2023-04-03T13:14:29;102770.39;;;5.33;41.22
19789;BME280;10054;59.332;18.244;2023-04-03T13:17:12;102766.89;;;5.35;41.97
19789;BME280;10054;59.332;18.244;2023-04-03T13:19:44;102767.80;;;5.29;40.51
19789;BME280;10054;59.332;18.244;2023-04-03T13:22:28;102771.27;;;5.32;39.49
19789;BME280;10054;59.332;18.244;2023-04-03T13:24:59;102767.83;;;5.25;37.96
19789;BME280;10054;59.332;18.244;2023-04-03T13:27:30;102767.92;;;5.13;38.05
19789;BME280;10054;59.332;18.244;2023-04-03T13:30:02;102763.98;;;5.16;39.23
19789;BME280;10054;59.332;18.244;2023-04-03T13:32:32;102759.27;;;5.00;37.85
19789;BME280;10054;59.332;18.244;2023-04-03T13:35:01;102750.08;;;5.08;37.84
19789;BME280;10054;59.332;18.244;2023-04-03T13:37:33;102751.84;;;5.03;39.72
19789;BME280;10054;59.332;18.244;2023-04-03T13:40:11;102751.83;;;5.06;38.09
19789;BME280;10054;59.332;18.244;2023-04-03T13:42:41;102751.80;;;5.10;38.96
19789;BME280;10054;59.332;18.244;2023-04-03T13:45:28;102747.00;;;5.11;38.27
19789;BME280;10054;59.332;18.244;2023-04-03T13:48:17;102750.03;;;5.15;38.76
19789;BME280;10054;59.332;18.244;2023-04-03T13:51:04;102747.41;;;5.17;37.98
19789;BME280;10054;59.332;18.244;2023-04-03T13:53:40;102747.34;;;5.21;38.66
19789;BME280;10054;59.332;18.244;2023-04-03T13:56:08;102743.94;;;5.13;36.90
19789;BME280;10054;59.332;18.244;2023-04-03T13:58:38;102745.27;;;5.10;36.71
19789;BME280;10054;59.332;18.244;2023-04-03T14:01:17;102732.67;;;5.01;37.83
19789;BME280;10054;59.332;18.244;2023-04-03T14:03:47;102731.41;;;4.93;36.53
19789;BME280;10054;59.332;18.244;2023-04-03T14:06:17;102725.26;;;5.02;37.14
19789;BME280;10054;59.332;18.244;2023-04-03T14:08:48;102729.13;;;5.11;38.55
19789;BME280;10054;59.332;18.244;2023-04-03T14:11:24;102722.06;;;5.20;39.27
19789;BME280;10054;59.332;18.244;2023-04-03T14:14:02;102725.22;;;5.08;37.56
19789;BME280;10054;59.332;18.244;2023-04-03T14:16:29;102723.90;;;5.11;37.31
19789;BME280;10054;59.332;18.244;2023-04-03T14:18:58;102726.09;;;5.08;37.38
19789;BME280;10054;59.332;18.244;2023-04-03T14:21:26;102722.57;;;5.14;37.73
19789;BME280;10054;59.332;18.244;2023-04-03T14:23:55;102720.42;;;5.09;38.15
19789;BME280;10054;59.332;18.244;2023-04-03T14:26:24;102712.60;;;5.04;36.37